createdAt,value
2019-04-05T00:02:23.692Z,100.00
2019-04-05T00:04:49.635Z,100.00
2019-04-05T00:07:15.473Z,100.00
2019-04-05T00:09:41.313Z,100.00
2019-04-05T00:12:07.155Z,100.00
2019-04-05T00:14:33.007Z,100.00
2019-04-05T00:16:58.816Z,100.00
2019-04-05T00:19:24.662Z,100.00
2019-04-05T00:21:50.485Z,100.00
2019-04-05T00:24:16.331Z,100.00
2019-04-05T00:26:42.158Z,100.00
2019-04-05T00:29:08.014Z,100.00
2019-04-05T00:31:33.832Z,100.00
2019-04-05T00:33:59.673Z,100.00
2019-04-05T00:36:25.541Z,100.00
2019-04-05T00:38:51.361Z,100.00
2019-04-05T00:41:17.233Z,100.00
2019-04-05T00:43:43.052Z,100.00
2019-04-05T00:46:08.897Z,100.00
2019-04-05T00:48:34.727Z,100.00
2019-04-05T00:51:00.684Z,100.00
2019-04-05T00:53:26.743Z,100.00
2019-04-05T00:55:52.694Z,100.00
2019-04-05T00:58:18.557Z,100.00
2019-04-05T01:00:44.494Z,100.00
2019-04-05T01:03:13.060Z,100.00
2019-04-05T01:05:38.089Z,100.00
2019-04-05T01:08:03.963Z,100.00
2019-04-05T01:10:29.812Z,100.00
2019-04-05T01:12:55.894Z,100.00
2019-04-05T01:15:21.746Z,100.00
2019-04-05T01:17:47.650Z,100.00
2019-04-05T01:20:13.507Z,100.00
2019-04-05T01:22:39.931Z,100.00
2019-04-05T01:25:05.985Z,100.00
2019-04-05T01:27:33.230Z,100.00
2019-04-05T01:29:59.182Z,100.00
2019-04-05T01:32:25.007Z,100.00
2019-04-05T01:34:50.873Z,100.00
2019-04-05T01:37:16.798Z,100.00
2019-04-05T01:39:42.665Z,100.00
2019-04-05T01:42:08.523Z,100.00
2019-04-05T01:44:34.371Z,100.00
2019-04-05T01:47:00.217Z,100.00
2019-04-05T01:49:26.073Z,100.00
2019-04-05T01:51:51.917Z,100.00
2019-04-05T01:54:17.769Z,100.00
2019-04-05T01:56:43.618Z,100.00
2019-04-05T01:59:09.451Z,100.00
2019-04-05T02:01:35.332Z,100.00
2019-04-05T02:04:01.184Z,100.00
2019-04-05T02:06:27.143Z,100.00
2019-04-05T02:08:54.623Z,100.00
2019-04-05T02:11:20.553Z,100.00
2019-04-05T02:13:48.345Z,100.00
2019-04-05T02:16:14.185Z,100.00
2019-04-05T02:18:40.035Z,100.00
2019-04-05T02:21:06.174Z,100.00
2019-04-05T02:23:32.038Z,100.00
2019-04-05T02:25:57.891Z,100.00
2019-04-05T02:28:25.440Z,100.00
2019-04-05T02:30:51.469Z,100.00
2019-04-05T02:33:17.425Z,100.00
2019-04-05T02:35:43.255Z,100.00
2019-04-05T02:38:09.103Z,100.00
2019-04-05T02:40:36.737Z,100.00
2019-04-05T02:43:02.979Z,100.00
2019-04-05T02:45:31.017Z,100.00
2019-04-05T02:48:00.681Z,100.00
2019-04-05T02:50:28.434Z,100.00
2019-04-05T02:52:57.277Z,100.00
2019-04-05T02:55:24.450Z,100.00
2019-04-05T02:57:50.805Z,100.00
2019-04-05T03:00:16.754Z,100.00
2019-04-05T03:02:42.998Z,100.00
2019-04-05T03:05:09.034Z,100.00
2019-04-05T03:07:34.896Z,100.00
2019-04-05T03:10:02.664Z,100.00
2019-04-05T03:12:28.698Z,100.00
2019-04-05T03:14:54.636Z,100.00
2019-04-05T03:17:20.779Z,100.00
2019-04-05T03:19:49.415Z,100.00
2019-04-05T03:22:15.378Z,100.00
2019-04-05T03:24:42.834Z,100.00
2019-04-05T03:27:12.512Z,100.00
2019-04-05T03:29:38.455Z,100.00
2019-04-05T03:32:04.528Z,100.00
2019-04-05T03:34:30.434Z,100.00
2019-04-05T03:36:56.400Z,100.00
2019-04-05T03:39:22.448Z,100.00
2019-04-05T03:41:48.285Z,100.00
2019-04-05T03:44:14.213Z,100.00
2019-04-05T03:46:55.464Z,100.00
2019-04-05T03:49:08.202Z,100.00
2019-04-05T03:51:34.164Z,100.00
2019-04-05T03:54:00.121Z,100.00
2019-04-05T03:56:26.121Z,100.00
2019-04-05T03:58:52.072Z,100.00
2019-04-05T04:01:17.999Z,100.00
2019-04-05T04:03:43.852Z,100.00
2019-04-05T04:06:09.786Z,100.00
2019-04-05T04:08:35.847Z,100.00
2019-04-05T04:11:01.796Z,100.00
2019-04-05T04:13:27.757Z,100.00
2019-04-05T04:15:53.926Z,100.00
2019-04-05T04:18:19.984Z,100.00
2019-04-05T04:20:50.099Z,100.00
2019-04-05T04:23:16.842Z,100.00
2019-04-05T04:25:43.119Z,100.00
2019-04-05T04:28:08.974Z,100.00
2019-04-05T04:30:35.606Z,100.00
2019-04-05T04:33:02.252Z,100.00
2019-04-05T04:35:28.325Z,100.00
2019-04-05T04:37:54.269Z,100.00
2019-04-05T04:40:20.228Z,100.00
2019-04-05T04:42:46.072Z,100.00
2019-04-05T04:45:12.984Z,100.00
2019-04-05T04:47:39.245Z,100.00
2019-04-05T04:50:05.903Z,100.00
2019-04-05T04:52:32.076Z,100.00
2019-04-05T04:54:58.022Z,100.00
2019-04-05T04:57:24.242Z,100.00
2019-04-05T04:59:50.275Z,100.00
2019-04-05T05:02:16.201Z,100.00
2019-04-05T05:04:42.269Z,100.00
2019-04-05T05:07:08.228Z,100.00
2019-04-05T05:09:34.174Z,100.00
2019-04-05T05:12:00.190Z,100.00
2019-04-05T05:14:26.150Z,100.00
2019-04-05T05:16:52.213Z,100.00
2019-04-05T05:19:18.293Z,100.00
2019-04-05T05:21:44.322Z,100.00
2019-04-05T05:24:10.306Z,100.00
2019-04-05T05:26:36.313Z,100.00
2019-04-05T05:29:02.270Z,100.00
2019-04-05T05:31:28.423Z,100.00
2019-04-05T05:33:54.448Z,100.00
2019-04-05T05:36:20.328Z,100.00
2019-04-05T05:38:46.261Z,100.00
2019-04-05T05:41:12.309Z,100.00
2019-04-05T05:43:38.152Z,100.00
2019-04-05T05:46:04.229Z,100.00
2019-04-05T05:48:30.965Z,100.00
2019-04-05T05:50:57.009Z,100.00
2019-04-05T05:53:22.874Z,100.00
2019-04-05T05:55:48.729Z,100.00
2019-04-05T05:58:14.564Z,100.00
2019-04-05T06:00:40.414Z,100.00
2019-04-05T06:03:06.543Z,100.00
2019-04-05T06:05:33.195Z,100.00
2019-04-05T06:08:01.006Z,100.00
2019-04-05T06:10:26.776Z,100.00
2019-04-05T06:12:52.595Z,100.00
2019-04-05T06:15:18.440Z,100.00
2019-04-05T06:17:44.289Z,100.00
2019-04-05T06:20:10.551Z,100.00
2019-04-05T06:22:36.401Z,100.00
2019-04-05T06:25:04.187Z,100.00
2019-04-05T06:27:30.046Z,100.00
2019-04-05T06:29:55.922Z,100.00
2019-04-05T06:32:21.768Z,100.00
2019-04-05T06:34:47.616Z,100.00
2019-04-05T06:37:13.472Z,100.00
2019-04-05T06:39:39.309Z,100.00
2019-04-05T06:42:05.273Z,100.00
2019-04-05T06:44:31.089Z,100.00
2019-04-05T06:46:56.961Z,100.00
2019-04-05T06:49:22.797Z,100.00
2019-04-05T06:51:48.651Z,100.00
2019-04-05T06:54:14.536Z,100.00
2019-04-05T06:56:40.413Z,100.00
2019-04-05T06:59:06.246Z,100.00
2019-04-05T07:01:32.162Z,100.00
2019-04-05T07:03:59.920Z,100.00
2019-04-05T07:06:25.776Z,100.00
2019-04-05T07:08:53.998Z,100.00
2019-04-05T07:11:19.373Z,100.00
2019-04-05T07:13:45.331Z,100.00
2019-04-05T07:16:11.335Z,100.00
2019-04-05T07:18:37.232Z,100.00
2019-04-05T07:21:03.172Z,100.00
2019-04-05T07:23:29.041Z,100.00
2019-04-05T07:25:54.884Z,100.00
2019-04-05T07:28:20.711Z,100.00
2019-04-05T07:30:46.565Z,100.00
2019-04-05T07:33:12.411Z,100.00
2019-04-05T07:35:40.735Z,100.00
2019-04-05T07:38:09.622Z,100.00
2019-04-05T07:40:35.906Z,100.00
2019-04-05T07:43:01.753Z,100.00
2019-04-05T07:45:27.591Z,100.00
2019-04-05T07:47:53.585Z,100.00
2019-04-05T07:50:19.374Z,100.00
2019-04-05T07:52:45.207Z,100.00
2019-04-05T07:55:11.151Z,100.00
2019-04-05T07:57:36.995Z,100.00
2019-04-05T08:00:07.068Z,100.00
2019-04-05T08:02:32.953Z,100.00
2019-04-05T08:04:58.801Z,100.00
2019-04-05T08:07:27.950Z,100.00
2019-04-05T08:09:54.122Z,100.00
2019-04-05T08:12:20.166Z,100.00
2019-04-05T08:14:46.133Z,100.00
2019-04-05T08:17:11.957Z,100.00
2019-04-05T08:19:37.808Z,100.00
2019-04-05T08:22:03.857Z,100.00
2019-04-05T08:24:29.710Z,100.00
2019-04-05T08:26:55.558Z,100.00
2019-04-05T08:29:21.414Z,100.00
2019-04-05T08:31:47.251Z,100.00
2019-04-05T08:34:13.141Z,100.00
2019-04-05T08:36:38.977Z,100.00
2019-04-05T08:39:06.600Z,100.00
2019-04-05T08:41:32.475Z,100.00
2019-04-05T08:43:58.343Z,100.00
2019-04-05T08:46:24.192Z,100.00
2019-04-05T08:48:52.285Z,100.00
2019-04-05T08:51:17.817Z,100.00
2019-04-05T08:53:43.638Z,100.00
2019-04-05T08:56:09.537Z,100.00
2019-04-05T08:58:35.382Z,100.00
2019-04-05T09:01:01.246Z,100.00
2019-04-05T09:03:27.081Z,100.00
2019-04-05T09:05:52.956Z,100.00
2019-04-05T09:08:21.293Z,100.00
2019-04-05T09:10:46.651Z,100.00
2019-04-05T09:13:12.499Z,100.00
2019-04-05T09:15:38.360Z,100.00
2019-04-05T09:18:04.287Z,100.00
2019-04-05T09:20:30.139Z,100.00
2019-04-05T09:22:55.971Z,100.00
2019-04-05T09:25:21.846Z,100.00
2019-04-05T09:27:47.685Z,100.00
2019-04-05T09:30:13.726Z,100.00
2019-04-05T09:32:39.602Z,100.00
2019-04-05T09:35:05.551Z,100.00
2019-04-05T09:37:31.393Z,100.00
2019-04-05T09:39:57.208Z,100.00
2019-04-05T09:42:23.078Z,100.00
2019-04-05T09:44:48.987Z,100.00
2019-04-05T09:47:14.817Z,100.00
2019-04-05T09:49:40.655Z,100.00
2019-04-05T09:52:06.616Z,100.00
2019-04-05T09:54:32.472Z,100.00
2019-04-05T09:56:58.321Z,100.00
2019-04-05T09:59:24.182Z,100.00
2019-04-05T10:01:50.030Z,100.00
2019-04-05T10:04:15.989Z,100.00
2019-04-05T10:06:42.077Z,100.00
2019-04-05T10:09:08.045Z,100.00
2019-04-05T10:11:33.894Z,100.00
2019-04-05T10:13:59.761Z,100.00
2019-04-05T10:16:25.619Z,100.00
2019-04-05T10:18:51.691Z,100.00
2019-04-05T10:21:17.541Z,100.00
2019-04-05T10:23:43.375Z,100.00
2019-04-05T10:26:09.236Z,100.00
2019-04-05T10:28:35.059Z,100.00
2019-04-05T10:31:00.909Z,100.00
2019-04-05T10:33:26.738Z,100.00
2019-04-05T10:35:52.599Z,100.00
2019-04-05T10:38:18.453Z,100.00
2019-04-05T10:40:44.309Z,100.00
2019-04-05T10:43:10.239Z,100.00
2019-04-05T10:45:36.071Z,100.00
2019-04-05T10:48:02.129Z,100.00
2019-04-05T10:50:27.952Z,100.00
2019-04-05T10:52:53.813Z,100.00
2019-04-05T10:55:19.777Z,100.00
2019-04-05T10:57:45.605Z,100.00
2019-04-05T11:00:13.955Z,100.00
2019-04-05T11:02:39.854Z,100.00
2019-04-05T11:05:05.798Z,100.00
2019-04-05T11:07:31.727Z,100.00
2019-04-05T11:09:57.589Z,100.00
2019-04-05T11:12:23.430Z,100.00
2019-04-05T11:14:49.287Z,100.00
2019-04-05T11:17:15.118Z,100.00
2019-04-05T11:19:40.996Z,99.88
2019-04-05T11:22:06.920Z,100.00
2019-04-05T11:24:32.748Z,97.26
2019-04-05T11:26:58.612Z,94.40
2019-04-05T11:29:24.463Z,93.43
2019-04-05T11:31:56.811Z,91.24
2019-04-05T11:34:18.066Z,89.98
2019-04-05T11:36:44.008Z,89.98
2019-04-05T11:39:09.832Z,88.26
2019-04-05T11:41:36.217Z,87.26
2019-04-05T11:44:02.082Z,86.15
2019-04-05T11:46:29.207Z,86.29
2019-04-05T11:48:55.154Z,86.12
2019-04-05T11:51:20.989Z,86.12
2019-04-05T11:53:46.858Z,87.38
2019-04-05T11:56:14.788Z,89.85
2019-04-05T11:58:42.350Z,89.21
2019-04-05T12:01:10.084Z,91.95
2019-04-05T12:03:36.029Z,93.00
2019-04-05T12:06:01.882Z,91.67
2019-04-05T12:08:27.747Z,92.33
2019-04-05T12:10:53.604Z,91.12
2019-04-05T12:13:19.469Z,90.92
2019-04-05T12:15:45.326Z,88.68
2019-04-05T12:18:11.163Z,87.60
2019-04-05T12:20:48.018Z,87.69
2019-04-05T12:23:04.963Z,88.82
2019-04-05T12:25:31.784Z,85.50
2019-04-05T12:28:06.239Z,86.32
2019-04-05T12:30:27.227Z,82.90
2019-04-05T12:32:53.366Z,82.15
2019-04-05T12:35:21.356Z,84.63
2019-04-05T12:37:50.383Z,83.22
2019-04-05T12:40:16.766Z,80.92
2019-04-05T12:42:43.562Z,82.02
2019-04-05T12:45:09.660Z,80.26
2019-04-05T12:47:35.515Z,77.68
2019-04-05T12:50:01.342Z,79.56
2019-04-05T12:52:28.005Z,78.64
2019-04-05T12:54:54.936Z,80.43
2019-04-05T12:57:20.859Z,79.54
2019-04-05T12:59:46.724Z,79.15
2019-04-05T13:02:14.057Z,82.03
2019-04-05T13:04:40.326Z,83.85
2019-04-05T13:07:06.665Z,86.70
2019-04-05T13:09:32.611Z,86.57
2019-04-05T13:11:58.451Z,87.60
2019-04-05T13:14:26.158Z,86.31
2019-04-05T13:16:52.089Z,86.19
2019-04-05T13:19:17.940Z,86.19
2019-04-05T13:21:43.791Z,86.29
2019-04-05T13:24:10.205Z,86.34
2019-04-05T13:26:36.961Z,84.66
2019-04-05T13:29:03.220Z,84.60
2019-04-05T13:31:29.041Z,83.73
2019-04-05T13:33:55.565Z,85.16
2019-04-05T13:36:21.570Z,82.97
2019-04-05T13:38:54.778Z,80.67
2019-04-05T13:41:15.207Z,79.32
2019-04-05T13:43:42.944Z,78.81
2019-04-05T13:46:21.004Z,77.74
2019-04-05T13:48:37.641Z,77.98
2019-04-05T13:51:07.094Z,77.80
2019-04-05T13:53:32.103Z,77.60
2019-04-05T13:55:57.983Z,77.06
2019-04-05T13:58:23.822Z,75.84
2019-04-05T14:00:49.936Z,75.78
2019-04-05T14:03:15.850Z,77.75
2019-04-05T14:05:41.817Z,74.14
2019-04-05T14:08:11.040Z,74.14
2019-04-05T14:10:35.408Z,71.71
2019-04-05T14:13:01.252Z,69.83
2019-04-05T14:15:31.280Z,69.78
2019-04-05T14:17:56.260Z,71.18
2019-04-05T14:20:24.461Z,71.86
2019-04-05T14:22:51.459Z,71.15
2019-04-05T14:25:17.707Z,70.45
2019-04-05T14:27:43.574Z,67.98
2019-04-05T14:30:09.627Z,68.39
2019-04-05T14:32:35.461Z,64.68
2019-04-05T14:35:01.412Z,66.14
2019-04-05T14:37:27.344Z,65.64
2019-04-05T14:39:53.202Z,66.72
2019-04-05T14:42:19.040Z,64.49
2019-04-05T14:44:44.914Z,63.06
2019-04-05T14:47:10.758Z,63.33
2019-04-05T14:49:36.750Z,63.65
2019-04-05T14:52:02.812Z,66.50
2019-04-05T14:54:30.096Z,66.72
2019-04-05T14:56:57.455Z,69.43
2019-04-05T14:59:23.488Z,68.52
2019-04-05T15:01:49.340Z,66.53
2019-04-05T15:04:15.206Z,69.84
2019-04-05T15:06:41.155Z,70.08
2019-04-05T15:09:07.017Z,71.38
2019-04-05T15:11:32.916Z,70.06
2019-04-05T15:13:58.763Z,69.17
2019-04-05T15:16:24.838Z,70.67
2019-04-05T15:18:50.891Z,69.87
2019-04-05T15:21:16.849Z,68.20
2019-04-05T15:23:45.431Z,67.59
2019-04-05T15:26:10.621Z,68.76
2019-04-05T15:28:38.944Z,69.42
2019-04-05T15:31:04.388Z,70.01
2019-04-05T15:33:30.295Z,68.42
2019-04-05T15:35:58.346Z,72.40
2019-04-05T15:38:24.072Z,73.59
2019-04-05T15:40:49.943Z,72.59
2019-04-05T15:43:15.907Z,71.01
2019-04-05T15:45:42.828Z,72.08
2019-04-05T15:48:08.870Z,70.57
2019-04-05T15:50:34.892Z,71.84
2019-04-05T15:53:02.302Z,73.05
2019-04-05T15:55:28.521Z,72.44
2019-04-05T15:57:54.508Z,73.62
2019-04-05T16:00:26.059Z,72.82
2019-04-05T16:02:52.103Z,73.32
2019-04-05T16:05:20.030Z,72.68
2019-04-05T16:07:46.095Z,74.45
2019-04-05T16:10:12.824Z,73.39
2019-04-05T16:12:38.892Z,74.66
2019-04-05T16:15:06.040Z,74.65
2019-04-05T16:17:31.924Z,75.04
2019-04-05T16:19:57.996Z,75.48
2019-04-05T16:22:31.302Z,74.95
2019-04-05T16:24:51.755Z,75.01
2019-04-05T16:27:17.682Z,76.62
2019-04-05T16:29:43.911Z,74.76
2019-04-05T16:32:09.825Z,75.77
2019-04-05T16:34:36.515Z,76.67
2019-04-05T16:37:02.909Z,77.44
2019-04-05T16:39:28.952Z,77.71
2019-04-05T16:42:02.998Z,77.13
2019-04-05T16:44:28.125Z,78.02
2019-04-05T16:46:54.281Z,77.51
2019-04-05T16:49:20.399Z,77.62
2019-04-05T16:51:48.438Z,77.35
2019-04-05T16:54:14.874Z,77.22
2019-04-05T16:56:41.105Z,77.63
2019-04-05T16:59:07.162Z,77.04
2019-04-05T17:01:33.014Z,76.45
2019-04-05T17:03:58.904Z,77.21
2019-04-05T17:06:24.803Z,76.96
2019-04-05T17:08:50.698Z,77.90
2019-04-05T17:11:16.899Z,77.84
2019-04-05T17:13:42.891Z,78.04
2019-04-05T17:16:08.880Z,78.56
2019-04-05T17:18:34.794Z,78.77
2019-04-05T17:21:00.712Z,79.66
2019-04-05T17:23:26.566Z,80.18
2019-04-05T17:25:52.460Z,80.30
2019-04-05T17:28:18.364Z,80.95
2019-04-05T17:30:44.234Z,81.46
2019-04-05T17:33:10.100Z,81.20
2019-04-05T17:35:36.094Z,82.91
2019-04-05T17:38:01.992Z,83.12
2019-04-05T17:40:27.890Z,82.62
2019-04-05T17:42:53.775Z,82.89
2019-04-05T17:45:19.688Z,83.24
2019-04-05T17:47:45.592Z,83.44
2019-04-05T17:50:15.279Z,84.13
2019-04-05T17:52:41.149Z,85.70
2019-04-05T17:55:07.333Z,86.42
2019-04-05T17:57:33.281Z,87.07
2019-04-05T17:59:59.222Z,87.15
2019-04-05T18:02:26.178Z,87.78
2019-04-05T18:04:52.026Z,88.78
2019-04-05T18:07:17.949Z,90.49
2019-04-05T18:09:43.779Z,92.41
2019-04-05T18:12:09.648Z,94.92
2019-04-05T18:14:35.486Z,95.86
2019-04-05T18:17:01.360Z,97.12
2019-04-05T18:19:27.271Z,97.59
2019-04-05T18:21:53.146Z,97.51
2019-04-05T18:24:18.999Z,97.94
2019-04-05T18:26:44.925Z,98.83
2019-04-05T18:29:10.763Z,98.06
2019-04-05T18:31:36.715Z,98.93
2019-04-05T18:34:02.649Z,100.00
2019-04-05T18:36:28.504Z,100.00
2019-04-05T18:38:54.343Z,100.00
2019-04-05T18:41:20.178Z,100.00
2019-04-05T18:43:46.029Z,100.00
2019-04-05T18:46:11.900Z,100.00
2019-04-05T18:48:37.734Z,100.00
2019-04-05T18:51:03.583Z,100.00
2019-04-05T18:53:37.485Z,100.00
2019-04-05T18:55:57.239Z,100.00
2019-04-05T18:58:23.073Z,100.00
2019-04-05T19:00:48.911Z,100.00
2019-04-05T19:03:14.758Z,100.00
2019-04-05T19:05:40.637Z,100.00
2019-04-05T19:08:06.860Z,100.00
2019-04-05T19:10:37.347Z,100.00
2019-04-05T19:13:00.491Z,100.00
2019-04-05T19:15:26.439Z,100.00
2019-04-05T19:17:52.268Z,100.00
2019-04-05T19:20:18.131Z,100.00
2019-04-05T19:22:44.003Z,100.00
2019-04-05T19:25:10.042Z,100.00
2019-04-05T19:27:35.916Z,100.00
2019-04-05T19:49:44.357Z,100.00
2019-04-05T19:52:10.220Z,100.00
2019-04-05T19:54:36.068Z,100.00
2019-04-05T19:57:01.949Z,100.00
2019-04-05T19:59:27.809Z,100.00
2019-04-05T20:01:53.774Z,100.00
2019-04-05T20:04:19.608Z,100.00
2019-04-05T20:06:45.476Z,100.00
2019-04-05T20:09:11.433Z,100.00
2019-04-05T20:11:37.290Z,100.00
2019-04-05T20:14:03.247Z,100.00
2019-04-05T20:16:29.097Z,100.00
2019-04-05T20:18:54.960Z,100.00
2019-04-05T20:21:20.808Z,100.00
2019-04-05T20:23:47.696Z,100.00
2019-04-05T20:26:13.734Z,100.00
2019-04-05T20:28:39.596Z,100.00
2019-04-05T20:31:05.445Z,100.00
2019-04-05T20:33:31.317Z,100.00
2019-04-05T20:35:57.195Z,100.00
2019-04-05T20:38:23.069Z,100.00
2019-04-05T20:40:48.913Z,100.00
2019-04-05T20:43:14.773Z,100.00
2019-04-05T20:45:40.660Z,100.00
2019-04-05T20:48:06.477Z,100.00
2019-04-05T20:50:32.325Z,100.00
2019-04-05T20:52:58.443Z,100.00
2019-04-05T20:55:24.329Z,100.00
2019-04-05T20:57:50.219Z,100.00
2019-04-05T21:00:16.769Z,100.00
2019-04-05T21:02:42.636Z,100.00
2019-04-05T21:05:08.604Z,100.00
2019-04-05T21:07:34.456Z,100.00
2019-04-05T21:10:00.343Z,100.00
2019-04-05T21:12:26.176Z,100.00
2019-04-05T21:14:52.026Z,100.00
2019-04-05T21:17:17.893Z,100.00
2019-04-05T21:19:43.741Z,100.00
2019-04-05T21:22:09.618Z,100.00
2019-04-05T21:24:36.482Z,100.00
2019-04-05T21:27:02.455Z,100.00
2019-04-05T21:29:28.301Z,100.00
2019-04-05T21:31:54.153Z,100.00
2019-04-05T21:34:19.976Z,100.00
2019-04-05T21:36:45.884Z,100.00
2019-04-05T21:39:11.713Z,100.00
2019-04-05T21:41:37.579Z,100.00
2019-04-05T21:44:03.426Z,100.00
2019-04-05T21:46:29.276Z,100.00
2019-04-05T21:48:55.133Z,100.00
2019-04-05T21:51:21.005Z,100.00
2019-04-05T21:53:47.718Z,100.00
2019-04-05T21:56:13.590Z,100.00
2019-04-05T21:58:39.455Z,100.00
2019-04-05T22:01:09.012Z,100.00
2019-04-05T22:03:35.069Z,100.00
2019-04-05T22:06:00.905Z,100.00
2019-04-05T22:08:26.776Z,100.00
2019-04-05T22:10:52.605Z,100.00
2019-04-05T22:13:18.448Z,100.00
2019-04-05T22:15:44.399Z,100.00
2019-04-05T22:18:10.258Z,100.00
2019-04-05T22:20:36.084Z,100.00
2019-04-05T22:23:01.936Z,100.00
2019-04-05T22:25:27.804Z,100.00
2019-04-05T22:27:53.651Z,100.00
2019-04-05T22:30:19.507Z,100.00
2019-04-05T22:32:45.355Z,100.00
2019-04-05T22:35:11.293Z,100.00
2019-04-05T22:37:37.139Z,100.00
2019-04-05T22:40:06.414Z,100.00
2019-04-05T22:42:32.261Z,100.00
2019-04-05T22:44:58.108Z,100.00
2019-04-05T22:47:23.933Z,100.00
2019-04-05T22:49:49.776Z,100.00
2019-04-05T22:52:15.640Z,100.00
2019-04-05T22:54:41.479Z,100.00
2019-04-05T22:57:07.364Z,100.00
2019-04-05T22:59:33.210Z,100.00
2019-04-05T23:01:59.036Z,100.00
2019-04-05T23:04:24.904Z,100.00
2019-04-05T23:06:50.725Z,100.00
2019-04-05T23:09:16.574Z,100.00
2019-04-05T23:11:42.429Z,100.00
2019-04-05T23:14:08.252Z,100.00
2019-04-05T23:16:34.092Z,100.00
2019-04-05T23:18:59.929Z,100.00
2019-04-05T23:21:25.770Z,100.00
2019-04-05T23:23:51.641Z,100.00
2019-04-05T23:26:17.489Z,100.00
2019-04-05T23:28:43.328Z,100.00
2019-04-05T23:31:09.155Z,100.00
2019-04-05T23:33:35.005Z,100.00
2019-04-05T23:36:00.956Z,100.00
2019-04-05T23:38:26.811Z,100.00
2019-04-05T23:40:52.630Z,100.00
2019-04-05T23:43:18.480Z,100.00
2019-04-05T23:45:44.338Z,100.00
2019-04-05T23:48:10.380Z,100.00
2019-04-05T23:50:36.248Z,100.00
2019-04-05T23:53:02.086Z,100.00
2019-04-05T23:55:33.079Z,100.00
2019-04-05T23:57:55.686Z,100.00
